Time;durP1;ratioP1;P1;durP2;ratioP2;P2;SDS_P1;SDS_P2;PMS_P1;PMS_P2;Temp;Humidity;BMP_temperature;BMP_pressure;BME280_temperature;BME280_humidity;BME280_pressure;Samples;Min_cycle;Max_cycle;Signal;HPM_P1;HPM_P2
2021/05/19 00:01:50;;;;;;;13.27;4.40;;;;;;;22.19;30.60;98858.22;5065081;28;20041;-65
2021/05/19 00:04:16;;;;;;;18.92;4.32;;;;;;;22.17;30.77;98854.78;5064331;28;20036;-64
2021/05/19 00:06:44;;;;;;;19.88;4.05;;;;;;;22.14;30.76;98846.94;5063153;28;20091;-65
2021/05/19 00:09:13;;;;;;;15.43;3.90;;;;;;;22.13;30.70;98852.44;5029011;28;20036;-66
2021/05/19 00:11:39;;;;;;;17.77;3.53;;;;;;;22.08;30.72;98854.69;5062741;28;20040;-65
2021/05/19 00:14:07;;;;;;;18.33;4.03;;;;;;;21.96;31.34;98840.34;5071448;28;20083;-66
2021/05/19 00:16:33;;;;;;;18.90;4.15;;;;;;;21.93;31.01;98849.56;5074443;28;20072;-66
2021/05/19 00:19:00;;;;;;;15.95;3.47;;;;;;;21.96;31.17;98856.53;5059960;28;20059;-66
2021/05/19 00:21:26;;;;;;;19.00;4.35;;;;;;;21.98;30.86;98855.44;5048886;28;20420;-66
2021/05/19 00:23:52;;;;;;;19.05;3.97;;;;;;;21.88;31.16;98837.41;5046089;28;20045;-63
2021/05/19 00:26:19;;;;;;;20.52;3.83;;;;;;;21.88;31.05;98840.09;5064970;28;20181;-67
2021/05/19 00:28:49;;;;;;;14.93;3.63;;;;;;;21.95;31.14;98850.28;5066422;28;20037;-67
2021/05/19 00:31:17;;;;;;;21.45;3.78;;;;;;;21.93;31.24;98849.56;5037582;28;20144;-65
2021/05/19 00:33:43;;;;;;;16.40;3.72;;;;;;;21.89;31.09;98836.41;5048148;28;20504;-65
2021/05/19 00:36:11;;;;;;;20.75;4.50;;;;;;;21.87;31.43;98841.06;5063077;28;20071;-67
2021/05/19 00:38:37;;;;;;;14.63;3.35;;;;;;;21.85;31.42;98852.00;5063866;28;20052;-65
2021/05/19 00:41:07;;;;;;;20.42;3.80;;;;;;;21.82;31.58;98841.44;5047216;28;20067;-65
2021/05/19 00:43:33;;;;;;;11.25;4.28;;;;;;;21.79;31.42;98835.41;5060053;28;20103;-64
2021/05/19 00:46:03;;;;;;;12.73;4.10;;;;;;;21.77;31.66;98837.41;5046725;28;20067;-65
2021/05/19 00:48:29;;;;;;;18.50;4.03;;;;;;;21.74;31.55;98830.41;5062434;28;20555;-66
2021/05/19 00:50:55;;;;;;;15.85;3.88;;;;;;;21.74;31.64;98835.81;5065886;28;20158;-65
2021/05/19 00:53:23;;;;;;;14.57;3.47;;;;;;;21.68;31.79;98830.00;5062632;28;20162;-65
2021/05/19 00:55:51;;;;;;;15.75;4.32;;;;;;;21.68;31.74;98836.25;5077298;28;20714;-66
2021/05/19 00:58:17;;;;;;;7.22;3.40;;;;;;;21.70;31.85;98841.53;5062291;28;20711;-66
2021/05/19 01:00:45;;;;;;;9.95;3.30;;;;;;;21.68;31.84;98828.16;5062749;28;20044;-66
2021/05/19 01:03:23;;;;;;;14.63;4.53;;;;;;;21.58;32.07;98808.28;5044267;28;20053;-71
2021/05/19 01:05:57;;;;;;;17.10;4.00;;;;;;;21.62;32.11;98825.09;5046951;28;20041;-76
2021/05/19 01:11:21;;;;;;;20.63;4.07;;;;;;;21.59;32.28;98819.94;5063545;28;20315;-69
2021/05/19 01:13:47;;;;;;;12.25;4.05;;;;;;;21.60;31.83;98813.56;5059705;28;20545;-68
2021/05/19 01:16:15;;;;;;;14.38;3.90;;;;;;;21.64;31.95;98810.50;5057429;28;20512;-69
2021/05/19 01:18:42;;;;;;;15.35;4.07;;;;;;;21.64;31.96;98815.88;5046912;28;20057;-69
2021/05/19 01:21:10;;;;;;;16.63;4.20;;;;;;;21.59;31.99;98809.13;5068359;28;20044;-64
2021/05/19 01:23:39;;;;;;;21.63;4.03;;;;;;;21.64;32.06;98801.56;5051783;28;20075;-65
2021/05/19 01:26:08;;;;;;;13.43;3.72;;;;;;;21.68;32.07;98803.03;5046163;28;20051;-70
2021/05/19 01:28:35;;;;;;;9.18;3.90;;;;;;;21.72;32.13;98809.94;5043807;28;20047;-69
2021/05/19 01:31:01;;;;;;;12.07;3.90;;;;;;;21.70;31.85;98807.34;5060139;28;20496;-68
2021/05/19 01:33:30;;;;;;;13.27;3.90;;;;;;;21.64;32.12;98810.50;5063519;28;20944;-71
2021/05/19 01:35:56;;;;;;;9.75;3.90;;;;;;;21.74;31.90;98818.75;5046919;28;20115;-69
2021/05/19 01:38:22;;;;;;;11.52;3.95;;;;;;;21.66;31.88;98797.75;5067668;28;20044;-69
2021/05/19 01:40:48;;;;;;;9.98;3.85;;;;;;;21.77;32.06;98805.00;5060056;28;20052;-66
2021/05/19 01:43:14;;;;;;;11.52;3.70;;;;;;;21.72;31.81;98805.38;5062080;28;20415;-71
2021/05/19 01:46:07;;;;;;;12.90;3.60;;;;;;;21.79;32.05;98806.59;5005516;28;20180;-66
2021/05/19 01:48:35;;;;;;;11.77;4.00;;;;;;;21.74;32.18;98803.41;5006956;28;20144;-68
2021/05/19 01:51:03;;;;;;;8.30;3.75;;;;;;;21.68;32.19;98797.63;5016959;28;20104;-72
2021/05/19 01:53:31;;;;;;;17.98;3.90;;;;;;;21.58;32.28;98799.34;5004019;28;20067;-64
2021/05/19 01:56:00;;;;;;;11.23;3.83;;;;;;;21.51;32.91;98800.78;4975640;28;20567;-70
2021/05/19 01:58:28;;;;;;;23.08;4.18;;;;;;;21.43;32.78;98777.13;5006252;28;20052;-71
2021/05/19 02:00:56;;;;;;;15.82;4.10;;;;;;;21.40;32.99;98754.97;4993776;28;20513;-71
2021/05/19 02:03:29;;;;;;;10.25;3.38;;;;;;;21.38;32.91;98744.28;5005253;28;20226;-70
2021/05/19 02:06:09;;;;;;;15.27;3.55;;;;;;;21.35;33.26;98762.53;5007092;28;20517;-67
2021/05/19 02:08:36;;;;;;;14.27;3.50;;;;;;;21.22;33.21;98753.72;5020714;28;20044;-68
2021/05/19 02:11:11;;;;;;;13.27;3.67;;;;;;;21.22;33.73;98756.41;5018533;28;20061;-69
2021/05/19 02:13:38;;;;;;;16.35;3.78;;;;;;;21.21;33.44;98769.00;5005829;28;20128;-70
2021/05/19 02:16:07;;;;;;;10.05;3.95;;;;;;;21.22;33.94;98761.78;5018656;28;20144;-67
2021/05/19 02:18:34;;;;;;;17.63;3.70;;;;;;;21.21;33.97;98757.38;5006450;28;20586;-68
2021/05/19 02:21:03;;;;;;;15.65;3.10;;;;;;;21.19;33.93;98759.34;5005107;28;20041;-66
2021/05/19 02:23:30;;;;;;;10.40;3.55;;;;;;;21.22;33.84;98765.38;5034589;28;20260;-66
2021/05/19 02:25:56;;;;;;;20.42;3.67;;;;;;;21.26;33.88;98772.22;5058072;28;20044;-68
2021/05/19 02:28:23;;;;;;;13.50;3.22;;;;;;;21.25;33.94;98765.09;5046614;28;20060;-68
2021/05/19 02:30:50;;;;;;;11.55;3.78;;;;;;;21.31;33.82;98764.63;5062044;28;20064;-72
2021/05/19 02:33:21;;;;;;;9.77;3.58;;;;;;;21.36;33.80;98775.91;5054492;28;20146;-71
2021/05/19 02:35:48;;;;;;;11.38;3.42;;;;;;;21.37;33.84;98772.22;5053917;28;20072;-70
2021/05/19 02:38:14;;;;;;;13.13;3.45;;;;;;;21.38;33.99;98760.47;5048847;28;20037;-69
2021/05/19 02:40:40;;;;;;;6.57;2.80;;;;;;;21.51;33.75;98800.78;5062025;28;20099;-71
2021/05/19 02:43:06;;;;;;;20.02;3.53;;;;;;;21.63;33.69;98795.28;5062163;28;20056;-70
2021/05/19 02:45:37;;;;;;;7.55;3.63;;;;;;;21.78;33.51;98822.91;5070199;28;20060;-72
2021/05/19 02:48:03;;;;;;;19.67;3.45;;;;;;;21.86;33.50;98826.72;5057978;28;20036;-61
2021/05/19 02:50:29;;;;;;;22.92;4.15;;;;;;;21.90;33.56;98824.63;5046779;28;20041;-70
2021/05/19 02:52:55;;;;;;;17.23;3.50;;;;;;;21.94;33.51;98828.78;5043857;28;20041;-70
2021/05/19 02:55:22;;;;;;;11.55;3.55;;;;;;;21.90;33.80;98830.03;5060103;28;20048;-71
2021/05/19 02:57:48;;;;;;;13.38;3.47;;;;;;;21.90;33.69;98824.63;5042458;28;20033;-72
2021/05/19 03:00:14;;;;;;;15.88;4.00;;;;;;;21.86;33.73;98820.47;5025288;28;20327;-71
2021/05/19 03:02:40;;;;;;;12.90;3.35;;;;;;;21.91;33.69;98834.44;5070564;28;20389;-71
2021/05/19 03:05:09;;;;;;;10.38;3.40;;;;;;;21.98;33.70;98838.34;5059945;28;20124;-73
2021/05/19 03:07:36;;;;;;;12.23;3.42;;;;;;;21.96;33.70;98832.25;5071348;28;20048;-73
2021/05/19 03:10:04;;;;;;;8.77;3.55;;;;;;;21.95;33.58;98822.41;5045897;28;20047;-75
2021/05/19 03:12:30;;;;;;;8.82;3.40;;;;;;;21.95;33.91;98800.81;5055873;28;20134;-71
2021/05/19 03:14:56;;;;;;;16.27;3.47;;;;;;;22.13;33.50;98825.44;5051491;28;20932;-73
2021/05/19 03:17:22;;;;;;;17.63;3.90;;;;;;;22.17;33.85;98853.91;5058948;28;20468;-72
2021/05/19 03:19:48;;;;;;;12.25;3.10;;;;;;;22.22;33.52;98860.66;5043985;28;20045;-73
2021/05/19 03:22:14;;;;;;;12.23;3.65;;;;;;;22.26;33.55;98855.91;5042596;28;20041;-72
2021/05/19 03:24:41;;;;;;;21.45;4.45;;;;;;;22.21;33.53;98848.16;5058113;28;20127;-68
2021/05/19 03:27:07;;;;;;;12.35;3.85;;;;;;;22.19;33.88;98852.81;5035377;28;20068;-70
2021/05/19 03:29:33;;;;;;;15.85;3.67;;;;;;;22.20;33.25;98872.59;5045421;28;20128;-73
2021/05/19 03:31:59;;;;;;;28.92;4.63;;;;;;;22.26;33.61;98854.03;5043137;28;20041;-63
2021/05/19 03:34:25;;;;;;;13.18;3.90;;;;;;;22.28;33.39;98860.19;5045801;28;20106;-72
2021/05/19 03:36:51;;;;;;;12.48;4.32;;;;;;;22.21;33.48;98856.25;5059633;28;20053;-70
2021/05/19 03:39:17;;;;;;;17.45;3.85;;;;;;;22.30;33.48;98866.31;5044854;28;20045;-74
2021/05/19 03:41:43;;;;;;;16.60;4.40;;;;;;;22.34;33.60;98865.06;5062070;28;20048;-69
2021/05/19 03:44:10;;;;;;;22.58;4.10;;;;;;;22.41;33.49;98871.69;5060451;28;20101;-74
2021/05/19 03:46:36;;;;;;;12.93;4.40;;;;;;;22.46;33.46;98866.75;5055940;28;20120;-75
2021/05/19 03:49:04;;;;;;;18.42;4.30;;;;;;;22.47;33.39;98868.53;5053862;28;20051;-68
2021/05/19 03:51:31;;;;;;;41.90;5.05;;;;;;;22.39;33.60;98870.94;5045020;28;21012;-74
2021/05/19 03:53:57;;;;;;;19.67;4.25;;;;;;;22.31;34.03;98865.31;5045255;28;20115;-74
2021/05/19 03:56:24;;;;;;;22.73;4.18;;;;;;;22.37;34.07;98872.94;5064919;28;20489;-71
2021/05/19 03:58:50;;;;;;;24.17;4.78;;;;;;;22.29;34.15;98845.69;5050071;28;20037;-72
2021/05/19 04:01:16;;;;;;;14.80;4.25;;;;;;;22.25;34.28;98849.63;5080094;28;20464;-75
2021/05/19 04:03:42;;;;;;;19.23;4.85;;;;;;;22.38;34.44;98865.69;5062525;28;20397;-71
2021/05/19 04:06:08;;;;;;;25.65;4.53;;;;;;;22.36;34.59;98867.66;5062020;28;20493;-69
2021/05/19 04:08:35;;;;;;;19.00;5.05;;;;;;;22.39;34.73;98867.41;5055261;28;20047;-71
2021/05/19 04:11:03;;;;;;;17.00;4.88;;;;;;;22.40;34.76;98861.00;5052989;28;20374;-70
2021/05/19 04:13:30;;;;;;;22.35;5.20;;;;;;;22.36;35.45;98867.66;5050639;28;20201;-68
2021/05/19 04:15:58;;;;;;;25.85;4.93;;;;;;;22.45;35.19;98872.28;5063772;28;20048;-71
2021/05/19 04:18:24;;;;;;;13.20;4.60;;;;;;;22.46;35.20;98874.03;5056392;28;20059;-70
2021/05/19 04:20:51;;;;;;;12.80;4.88;;;;;;;22.28;35.58;98857.47;5062596;28;20132;-72
2021/05/19 04:23:18;;;;;;;26.42;5.45;;;;;;;22.43;35.50;98875.16;5054251;28;20127;-70
2021/05/19 04:25:44;;;;;;;14.60;4.75;;;;;;;22.41;35.77;98881.63;5075691;28;20049;-74
2021/05/19 04:28:11;;;;;;;17.98;5.05;;;;;;;22.41;35.98;98895.13;5055168;28;20044;-71
2021/05/19 04:30:38;;;;;;;25.55;4.78;;;;;;;22.39;36.04;98886.31;5062841;28;20137;-72
2021/05/19 04:33:04;;;;;;;25.75;4.90;;;;;;;22.34;36.30;98883.97;5061571;28;20120;-69
2021/05/19 04:35:32;;;;;;;31.48;5.30;;;;;;;22.17;36.44;98876.41;5066171;28;20036;-73
2021/05/19 04:37:59;;;;;;;17.00;4.55;;;;;;;22.37;36.68;98896.38;5048683;28;20049;-69
2021/05/19 04:40:25;;;;;;;23.90;4.95;;;;;;;22.39;36.86;98892.56;5040352;28;20049;-65
2021/05/19 04:42:52;;;;;;;16.70;4.60;;;;;;;22.42;36.97;98900.41;5074134;28;20649;-77
2021/05/19 04:45:19;;;;;;;20.23;5.55;;;;;;;22.51;37.02;98921.34;5064803;28;20044;-72
2021/05/19 04:47:46;;;;;;;28.02;5.05;;;;;;;22.58;37.07;98913.59;5046841;28;20158;-70
2021/05/19 04:50:12;;;;;;;18.17;4.82;;;;;;;22.55;37.04;98920.09;5059355;28;20056;-71
2021/05/19 04:52:39;;;;;;;28.40;4.63;;;;;;;22.54;36.92;98923.78;5049316;28;20530;-71
2021/05/19 04:55:06;;;;;;;26.85;3.75;;;;;;;22.46;37.14;98918.09;5043929;28;20072;-76
2021/05/19 04:57:33;;;;;;;19.13;4.68;;;;;;;22.31;37.66;98913.09;5059441;28;20404;-64
2021/05/19 05:00:00;;;;;;;30.63;4.68;;;;;;;22.47;37.50;98932.50;5046574;28;21010;-72
2021/05/19 05:02:26;;;;;;;25.10;4.75;;;;;;;22.55;37.61;98940.84;5062085;28;20450;-75
2021/05/19 05:04:53;;;;;;;16.08;4.75;;;;;;;22.63;37.90;98933.84;5047126;28;20415;-74
2021/05/19 05:07:19;;;;;;;18.63;4.30;;;;;;;22.67;37.71;98940.72;5059430;28;20045;-71
2021/05/19 05:09:47;;;;;;;19.17;4.55;;;;;;;22.74;37.84;98950.00;5065875;28;20094;-69
2021/05/19 05:12:15;;;;;;;15.32;4.05;;;;;;;22.59;37.91;98934.22;5062932;28;20055;-72
2021/05/19 05:14:41;;;;;;;14.88;3.92;;;;;;;22.62;37.87;98948.31;5044972;28;20095;-68
2021/05/19 05:17:08;;;;;;;19.05;3.90;;;;;;;22.67;38.17;98961.47;5043755;28;20591;-72
2021/05/19 05:19:34;;;;;;;13.18;4.07;;;;;;;22.70;38.17;98962.06;5044839;28;20048;-69
2021/05/19 05:22:00;;;;;;;16.10;4.18;;;;;;;22.66;38.42;98957.91;5067518;28;20041;-75
2021/05/19 05:24:26;;;;;;;16.25;3.80;;;;;;;22.77;38.74;98968.69;5059926;28;20522;-74
2021/05/19 05:26:56;;;;;;;14.40;4.30;;;;;;;22.80;38.52;98975.69;5043001;28;20058;-72
2021/05/19 05:29:21;;;;;;;18.75;4.22;;;;;;;22.79;38.89;98982.09;5050500;28;20118;-72
2021/05/19 05:31:47;;;;;;;14.15;3.40;;;;;;;22.79;38.76;98969.44;5061876;28;20040;-69
2021/05/19 05:34:13;;;;;;;22.13;4.00;;;;;;;22.89;39.01;98985.75;5061466;28;20422;-72
2021/05/19 05:36:43;;;;;;;19.17;3.92;;;;;;;23.00;39.45;98986.59;5047395;28;20052;-75
2021/05/19 05:39:09;;;;;;;17.73;3.60;;;;;;;23.04;39.06;98977.25;5054523;28;20173;-70
2021/05/19 05:41:37;;;;;;;12.63;3.35;;;;;;;23.07;39.50;98985.09;5063271;28;20044;-72
2021/05/19 05:44:04;;;;;;;11.65;3.03;;;;;;;23.12;39.49;98984.69;5067347;28;20056;-71
2021/05/19 05:46:30;;;;;;;17.65;3.50;;;;;;;23.20;39.64;98993.94;5063698;28;20045;-71
2021/05/19 05:48:58;;;;;;;13.07;3.38;;;;;;;23.29;39.65;98984.22;5065065;28;20041;-68
2021/05/19 05:51:24;;;;;;;18.70;2.85;;;;;;;23.15;39.33;98969.09;5065091;28;20106;-72
2021/05/19 05:53:51;;;;;;;13.13;2.83;;;;;;;23.24;39.88;98995.41;5063426;28;20400;-73
2021/05/19 05:56:18;;;;;;;14.63;2.00;;;;;;;23.17;40.57;99010.38;5047892;28;20389;-73
2021/05/19 05:58:43;;;;;;;18.15;2.17;;;;;;;23.22;40.49;99019.00;5061805;28;20087;-69
2021/05/19 06:01:11;;;;;;;15.90;1.88;;;;;;;23.23;40.77;99018.03;5061846;28;20036;-66
2021/05/19 06:03:40;;;;;;;20.48;1.80;;;;;;;23.20;40.97;99017.38;5065054;28;20073;-70
2021/05/19 06:06:06;;;;;;;19.92;1.98;;;;;;;23.17;41.13;99025.78;5059716;28;20123;-70
2021/05/19 06:08:32;;;;;;;10.98;2.58;;;;;;;23.19;41.05;99013.84;5064097;28;20128;-67
2021/05/19 06:10:59;;;;;;;19.58;2.30;;;;;;;23.30;41.29;99046.28;5063459;28;20054;-71
2021/05/19 06:13:25;;;;;;;18.23;1.73;;;;;;;23.13;41.70;99016.19;5063205;28;20168;-67
2021/05/19 06:15:51;;;;;;;14.75;2.10;;;;;;;23.29;41.74;99005.84;5044692;28;20176;-71
2021/05/19 06:18:17;;;;;;;15.35;2.20;;;;;;;23.34;41.84;99019.84;5062806;28;20040;-68
2021/05/19 06:20:43;;;;;;;18.17;2.17;;;;;;;23.32;42.03;99014.56;5062809;28;20044;-75
2021/05/19 06:23:09;;;;;;;22.13;2.90;;;;;;;23.31;42.43;99018.25;5062170;28;20044;-70
2021/05/19 06:25:35;;;;;;;10.32;2.35;;;;;;;23.34;42.32;99004.44;5064890;28;20122;-74
2021/05/19 06:28:04;;;;;;;6.40;2.00;;;;;;;23.46;42.31;99010.69;5050586;28;20134;-77
2021/05/19 06:30:30;;;;;;;16.10;2.30;;;;;;;23.49;42.39;99011.28;5051133;28;20343;-77
2021/05/19 06:32:56;;;;;;;6.85;2.10;;;;;;;23.47;42.79;99007.88;5057325;28;20044;-75
2021/05/19 06:35:25;;;;;;;23.30;2.20;;;;;;;23.55;42.87;99018.03;5072494;28;20063;-73
2021/05/19 06:37:51;;;;;;;20.48;2.20;;;;;;;23.59;43.10;99041.16;5063460;28;20304;-72
2021/05/19 06:40:17;;;;;;;14.73;1.98;;;;;;;23.53;43.11;99030.84;5062657;28;20040;-69
2021/05/19 06:42:43;;;;;;;13.13;2.53;;;;;;;23.85;42.83;99045.22;5055603;28;20029;-71
2021/05/19 06:45:10;;;;;;;13.35;2.30;;;;;;;23.87;42.59;99037.81;5056313;28;20044;-69
2021/05/19 06:47:36;;;;;;;16.55;2.30;;;;;;;23.87;42.79;99049.53;5029300;28;20051;-72
2021/05/19 06:50:09;;;;;;;16.50;2.08;;;;;;;23.81;42.57;99070.84;5056690;28;20063;-71
2021/05/19 06:52:36;;;;;;;19.67;2.50;;;;;;;23.96;42.37;99062.28;5044278;28;20076;-72
2021/05/19 06:55:06;;;;;;;26.05;2.00;;;;;;;23.85;42.49;99056.06;5062430;28;20053;-74
2021/05/19 06:57:35;;;;;;;20.15;1.65;;;;;;;23.78;42.12;99049.44;5049722;28;20041;-72
2021/05/19 07:00:07;;;;;;;21.40;1.92;;;;;;;24.31;41.26;99070.97;5045520;28;20047;-67
2021/05/19 07:02:34;;;;;;;18.15;1.67;;;;;;;24.19;42.16;99092.81;5040517;28;20107;-70
2021/05/19 07:05:00;;;;;;;16.92;2.08;;;;;;;24.02;42.71;99101.56;5043251;28;20041;-70
2021/05/19 07:07:28;;;;;;;12.27;1.83;;;;;;;24.14;42.66;99097.78;5043606;28;20150;-70
2021/05/19 07:09:54;;;;;;;11.52;1.65;;;;;;;23.79;44.01;99138.66;5058660;28;20170;-72
2021/05/19 07:12:20;;;;;;;9.38;1.40;;;;;;;24.38;42.71;99114.66;5055410;28;20596;-64
2021/05/19 07:15:21;;;;;;;10.80;1.02;;;;;;;24.34;42.32;99096.94;5063290;28;20033;-71
2021/05/19 07:17:40;;;;;;;10.95;0.95;;;;;;;24.59;41.30;99119.06;5056864;28;20163;-65
2021/05/19 07:20:09;;;;;;;12.15;1.23;;;;;;;24.02;42.53;99143.06;5042538;28;20044;-70
2021/05/19 07:22:35;;;;;;;11.80;1.30;;;;;;;24.65;41.61;99126.69;5041106;28;20123;-71
2021/05/19 07:25:04;;;;;;;13.70;1.20;;;;;;;24.70;41.71;99127.16;5060226;28;20072;-72
2021/05/19 07:27:30;;;;;;;13.40;1.17;;;;;;;24.83;41.57;99127.78;5061897;28;20680;-71
2021/05/19 07:29:56;;;;;;;21.23;1.10;;;;;;;25.90;39.52;99117.97;5062334;28;20131;-67
2021/05/19 07:32:22;;;;;;;8.80;1.63;;;;;;;26.27;39.25;99134.47;5060093;28;20040;-75
2021/05/19 07:34:49;;;;;;;11.77;1.25;;;;;;;25.46;39.99;99126.63;5060604;28;20040;-67
2021/05/19 07:37:16;;;;;;;7.75;1.10;;;;;;;25.71;40.09;99120.69;5063942;28;20094;-74
2021/05/19 07:39:42;;;;;;;7.72;0.93;;;;;;;25.78;39.73;99124.53;5048946;28;20045;-72
2021/05/19 07:42:08;;;;;;;3.60;0.77;;;;;;;25.91;39.54;99122.44;5031946;28;20040;-76
2021/05/19 07:44:34;;;;;;;8.18;1.23;;;;;;;26.27;39.24;99118.16;5047374;28;20117;-73
2021/05/19 07:47:01;;;;;;;5.80;1.33;;;;;;;26.80;37.79;99125.66;5044611;28;20524;-69
2021/05/19 07:49:28;;;;;;;9.00;1.48;;;;;;;26.29;38.39;99122.44;5047126;28;20040;-71
2021/05/19 07:51:55;;;;;;;10.32;1.63;;;;;;;26.85;37.08;99127.97;5061949;28;20047;-69
2021/05/19 07:54:26;;;;;;;11.23;1.85;;;;;;;27.32;36.79;99118.75;5061206;28;20144;-75
2021/05/19 07:56:58;;;;;;;8.07;1.33;;;;;;;26.04;38.94;99136.63;5078229;28;20059;-73
2021/05/19 07:59:28;;;;;;;9.82;1.48;;;;;;;27.35;36.82;99130.22;5051122;28;20128;-68
2021/05/19 08:04:21;;;;;;;6.57;1.58;;;;;;;27.60;36.22;99147.72;5067933;28;20056;-71
2021/05/19 08:06:51;;;;;;;6.80;1.23;;;;;;;27.39;36.67;99147.97;5068164;28;20085;-71
2021/05/19 08:09:23;;;;;;;6.20;1.77;;;;;;;26.97;37.56;99156.72;5071104;28;20032;-69
2021/05/19 08:11:49;;;;;;;4.28;1.70;;;;;;;28.77;34.32;99160.16;5065856;28;20048;-72
2021/05/19 08:14:16;;;;;;;9.13;1.90;;;;;;;28.22;35.25;99136.81;5049898;28;20039;-73
2021/05/19 08:16:43;;;;;;;3.80;1.60;;;;;;;28.74;34.96;99161.31;5061301;28;20049;-68
2021/05/19 08:19:09;;;;;;;9.23;1.60;;;;;;;29.72;32.47;99158.16;5077124;28;20131;-66
2021/05/19 08:21:36;;;;;;;8.30;1.45;;;;;;;31.56;29.56;99180.13;5062859;28;20041;-65
2021/05/19 08:24:03;;;;;;;5.72;1.42;;;;;;;30.17;31.92;99164.97;5064462;28;20049;-64
2021/05/19 08:26:30;;;;;;;10.20;1.30;;;;;;;29.78;32.51;99149.31;5060689;28;20032;-68
2021/05/19 08:28:56;;;;;;;4.43;1.48;;;;;;;28.52;34.26;99156.34;5065305;28;20037;-64
2021/05/19 08:31:22;;;;;;;7.55;1.90;;;;;;;28.32;34.09;99182.06;5043753;28;20661;-66
2021/05/19 08:33:49;;;;;;;5.57;2.28;;;;;;;27.54;36.04;99181.88;5064009;28;20047;-66
2021/05/19 08:36:16;;;;;;;9.30;1.95;;;;;;;32.00;28.67;99173.09;5044248;28;20101;-65
2021/05/19 08:38:44;;;;;;;9.43;2.30;;;;;;;32.08;28.64;99190.34;5057246;28;20045;-64
2021/05/19 08:41:13;;;;;;;11.18;1.48;;;;;;;30.59;30.18;99171.16;5063804;28;20690;-66
2021/05/19 08:43:40;;;;;;;4.60;1.45;;;;;;;29.62;32.42;99176.56;5065478;28;20146;-66
2021/05/19 08:46:09;;;;;;;5.82;1.80;;;;;;;31.38;29.90;99174.00;5046782;28;20093;-69
2021/05/19 08:48:51;;;;;;;3.63;1.52;;;;;;;31.73;29.22;99166.16;5062279;28;20067;-64
2021/05/19 08:51:20;;;;;;;5.65;1.90;;;;;;;33.40;27.04;99188.97;5050913;28;20044;-68
2021/05/19 08:53:46;;;;;;;4.10;1.92;;;;;;;31.69;28.33;99192.25;5049505;28;20084;-68
2021/05/19 08:56:16;;;;;;;4.15;1.90;;;;;;;33.49;26.64;99180.44;5067638;28;20768;-69
2021/05/19 08:58:44;;;;;;;7.82;1.77;;;;;;;32.34;27.98;99190.03;5068758;28;20040;-68
2021/05/19 09:01:20;;;;;;;4.55;1.77;;;;;;;35.68;24.05;99197.84;5066504;28;20074;-66
2021/05/19 09:04:02;;;;;;;2.65;1.50;;;;;;;32.31;28.38;99185.78;5064200;28;20056;-67
2021/05/19 09:06:28;;;;;;;7.20;1.60;;;;;;;31.46;29.70;99179.47;5066136;28;20586;-66
2021/05/19 09:08:55;;;;;;;7.07;1.95;;;;;;;34.31;25.73;99193.84;5049648;28;20105;-67
2021/05/19 09:11:23;;;;;;;7.28;1.80;;;;;;;34.05;25.91;99201.75;5031037;28;20548;-65
2021/05/19 09:13:49;;;;;;;4.43;1.40;;;;;;;32.06;29.11;99191.56;5061693;28;20045;-65
2021/05/19 09:16:29;;;;;;;6.70;1.95;;;;;;;31.77;29.21;99188.63;5061264;28;20121;-66
2021/05/19 09:18:57;;;;;;;8.23;1.90;;;;;;;34.20;26.47;99197.06;5062044;28;20041;-71
2021/05/19 09:21:41;;;;;;;7.47;2.20;;;;;;;35.47;24.17;99209.78;5062711;28;20041;-68
2021/05/19 09:24:14;;;;;;;18.92;2.40;;;;;;;33.05;27.16;99207.84;5054803;28;20135;-68
2021/05/19 09:27:00;;;;;;;9.00;1.80;;;;;;;34.10;26.04;99213.06;5060802;28;20174;-68
2021/05/19 09:29:35;;;;;;;5.93;2.25;;;;;;;33.13;26.96;99207.78;5054473;28;20188;-67
2021/05/19 09:32:02;;;;;;;10.10;2.70;;;;;;;33.70;26.38;99205.28;5062294;28;20357;-67
2021/05/19 09:34:31;;;;;;;13.13;2.65;;;;;;;35.55;23.85;99206.03;5055720;28;20044;-70
2021/05/19 09:37:27;;;;;;;14.45;2.85;;;;;;;36.58;22.81;99215.91;5062388;28;20513;-67
2021/05/19 09:40:00;;;;;;;7.07;2.10;;;;;;;37.53;21.72;99217.22;5061941;28;20051;-69
2021/05/19 09:42:58;;;;;;;7.82;2.28;;;;;;;36.59;22.30;99220.34;5067988;28;20044;-66
2021/05/19 09:45:29;;;;;;;5.40;1.88;;;;;;;34.52;23.78;99204.88;5059726;28;20044;-69
2021/05/19 09:48:00;;;;;;;4.65;1.65;;;;;;;33.75;25.39;99212.97;5058618;28;20048;-75
2021/05/19 09:50:35;;;;;;;7.13;2.22;;;;;;;35.88;23.03;99216.25;5060381;28;20154;-73
2021/05/19 09:53:09;;;;;;;4.70;2.13;;;;;;;36.29;22.64;99230.03;5058677;28;20525;-69
2021/05/19 09:55:37;;;;;;;9.73;2.30;;;;;;;36.97;21.97;99226.19;5060013;28;20044;-71
2021/05/19 09:58:05;;;;;;;8.80;3.00;;;;;;;36.76;22.63;99221.69;5065135;28;20487;-72
2021/05/19 10:00:33;;;;;;;6.15;2.55;;;;;;;37.34;22.19;99239.41;5065593;28;20496;-70
2021/05/19 10:03:01;;;;;;;4.57;2.22;;;;;;;39.08;20.13;99237.06;5049671;28;20140;-67
2021/05/19 10:05:40;;;;;;;11.63;1.95;;;;;;;35.96;22.76;99229.88;5060329;28;20068;-68
2021/05/19 10:08:05;;;;;;;6.75;2.28;;;;;;;35.60;23.55;99237.47;5060721;28;20528;-69
2021/05/19 10:10:32;;;;;;;10.82;2.20;;;;;;;34.13;24.86;99231.09;5051738;28;20059;-69
2021/05/19 10:12:59;;;;;;;10.40;1.80;;;;;;;33.21;25.88;99226.94;5061112;28;20047;-67
2021/05/19 10:15:31;;;;;;;8.52;2.17;;;;;;;33.80;25.17;99221.47;5043177;28;20083;-71
2021/05/19 10:18:11;;;;;;;8.38;1.90;;;;;;;36.29;22.17;99222.59;5045978;28;20396;-71
2021/05/19 10:20:41;;;;;;;7.57;2.25;;;;;;;37.32;21.70;99223.00;5044016;28;20036;-68
2021/05/19 10:23:09;;;;;;;7.68;1.90;;;;;;;38.44;20.46;99230.81;5062619;28;20056;-74
2021/05/19 10:25:39;;;;;;;5.03;2.30;;;;;;;38.53;20.12;99212.06;5052185;28;20048;-69
2021/05/19 10:28:09;;;;;;;10.23;2.40;;;;;;;36.82;21.48;99234.69;5044798;28;20046;-68
2021/05/19 10:30:42;;;;;;;3.30;2.30;;;;;;;33.62;25.31;99229.28;5049816;28;20451;-68
2021/05/19 10:33:26;;;;;;;11.85;2.65;;;;;;;35.88;22.68;99229.19;5060863;28;20040;-68
2021/05/19 10:36:24;;;;;;;10.18;2.35;;;;;;;37.20;20.96;99226.66;5042663;28;20044;-70
2021/05/19 10:39:09;;;;;;;8.07;2.38;;;;;;;35.22;23.34;99232.47;5075089;28;20044;-69
2021/05/19 10:41:47;;;;;;;5.90;2.13;;;;;;;36.32;21.93;99246.19;5060267;28;20424;-69
2021/05/19 10:44:29;;;;;;;5.40;1.70;;;;;;;38.00;20.42;99243.78;5058730;28;20139;-69
2021/05/19 10:47:06;;;;;;;6.13;2.10;;;;;;;39.12;19.10;99245.81;5061659;28;20041;-67
2021/05/19 10:57:51;;;;;;;;;;;;;;;38.00;20.21;99252.94;5055865;28;20053;-65
2021/05/19 11:00:25;;;;;;;5.38;2.05;;;;;;;35.30;22.80;99247.00;5044556;28;19920;-67
2021/05/19 11:02:52;;;;;;;7.93;2.40;;;;;;;36.23;21.88;99237.22;5058561;28;20250;-70
2021/05/19 11:05:19;;;;;;;4.60;2.58;;;;;;;36.43;22.16;99251.13;5047162;28;20084;-64
2021/05/19 11:08:11;;;;;;;3.80;2.45;;;;;;;37.64;21.01;99262.84;5064090;28;20611;-68
2021/05/19 11:10:46;;;;;;;7.83;2.47;;;;;;;37.49;21.68;99256.63;5064375;28;20165;-70
2021/05/19 11:13:15;;;;;;;7.88;2.53;;;;;;;37.48;20.76;99230.88;5048049;28;20053;-72
2021/05/19 11:16:07;;;;;;;6.20;2.47;;;;;;;37.08;20.75;99217.22;5065585;28;20464;-67
2021/05/19 11:21:29;;;;;;;12.90;2.60;;;;;;;37.10;21.66;99240.88;5078933;28;20479;-71
2021/05/19 11:24:11;;;;;;;3.13;2.20;;;;;;;32.80;26.32;99235.69;5073454;28;20519;-72
2021/05/19 11:26:45;;;;;;;10.88;2.80;;;;;;;34.14;25.45;99236.41;5055090;28;20059;-72
2021/05/19 11:29:14;;;;;;;11.35;2.75;;;;;;;35.44;23.91;99234.19;5044351;28;20056;-67
2021/05/19 11:31:44;;;;;;;8.82;2.42;;;;;;;35.47;24.03;99245.66;5074718;28;20523;-71
2021/05/19 11:34:11;;;;;;;8.48;3.03;;;;;;;34.64;24.06;99254.81;5069599;28;20043;-78
2021/05/19 11:36:41;;;;;;;8.88;2.80;;;;;;;34.42;24.31;99236.53;5073016;28;20106;-68
2021/05/19 11:39:31;;;;;;;6.15;2.65;;;;;;;32.91;25.81;99241.63;5058872;28;20059;-69
2021/05/19 11:42:25;;;;;;;9.80;2.40;;;;;;;32.63;26.19;99231.38;5072053;28;20699;-70
2021/05/19 11:45:06;;;;;;;6.00;2.92;;;;;;;31.10;28.39;99230.22;5076401;28;20053;-70
2021/05/19 11:47:32;;;;;;;7.65;2.60;;;;;;;31.57;27.89;99231.19;5045154;28;20106;-73
2021/05/19 11:50:11;;;;;;;6.40;2.92;;;;;;;32.47;26.89;99232.31;5071558;28;20044;-71
2021/05/19 11:52:49;;;;;;;5.97;2.83;;;;;;;32.65;27.11;99227.41;5078013;28;20097;-66
2021/05/19 11:55:50;;;;;;;4.82;2.70;;;;;;;33.31;26.50;99234.91;5055738;28;20208;-70